sensor_id;sensor_type;location;lat;lon;timestamp;pressure;altitude;pressure_sealevel;temperature;humidity
11124;BME280;5616;42.692;23.312;2024-02-23T00:01:46;95038.13;;;8.91;54.56
11124;BME280;5616;42.692;23.312;2024-02-23T00:04:12;95040.50;;;8.92;53.72
11124;BME280;5616;42.692;23.312;2024-02-23T00:06:38;95063.78;;;8.91;53.37
11124;BME280;5616;42.692;23.312;2024-02-23T00:09:03;95048.38;;;8.91;53.38
11124;BME280;5616;42.692;23.312;2024-02-23T00:11:29;95036.72;;;8.95;53.72
11124;BME280;5616;42.692;23.312;2024-02-23T00:13:55;95033.94;;;8.96;52.92
11124;BME280;5616;42.692;23.312;2024-02-23T00:16:21;95047.97;;;8.94;52.81
11124;BME280;5616;42.692;23.312;2024-02-23T00:18:46;95036.72;;;8.95;52.46
11124;BME280;5616;42.692;23.312;2024-02-23T00:21:12;95037.28;;;8.97;53.43
11124;BME280;5616;42.692;23.312;2024-02-23T00:23:37;95042.41;;;8.97;53.08
11124;BME280;5616;42.692;23.312;2024-02-23T00:26:03;95038.09;;;8.97;53.56
11124;BME280;5616;42.692;23.312;2024-02-23T00:28:28;95033.75;;;8.98;53.84
11124;BME280;5616;42.692;23.312;2024-02-23T00:30:54;95035.31;;;8.99;53.15
11124;BME280;5616;42.692;23.312;2024-02-23T00:33:19;95029.97;;;9.00;52.13
11124;BME280;5616;42.692;23.312;2024-02-23T00:35:45;95015.97;;;8.96;55.85
11124;BME280;5616;42.692;23.312;2024-02-23T00:38:10;95027.41;;;9.00;55.58
11124;BME280;5616;42.692;23.312;2024-02-23T00:40:36;95036.50;;;9.03;53.86
11124;BME280;5616;42.692;23.312;2024-02-23T00:43:02;95027.78;;;9.04;53.60
11124;BME280;5616;42.692;23.312;2024-02-23T00:45:28;95027.59;;;9.05;53.58
11124;BME280;5616;42.692;23.312;2024-02-23T00:47:54;95030.94;;;9.06;53.98
11124;BME280;5616;42.692;23.312;2024-02-23T00:50:19;95016.75;;;9.03;53.72
11124;BME280;5616;42.692;23.312;2024-02-23T00:52:45;95005.69;;;9.03;54.24
11124;BME280;5616;42.692;23.312;2024-02-23T00:55:10;95008.28;;;9.03;54.04
11124;BME280;5616;42.692;23.312;2024-02-23T00:57:36;95015.97;;;9.03;53.67
11124;BME280;5616;42.692;23.312;2024-02-23T01:00:02;95007.25;;;9.04;54.80
11124;BME280;5616;42.692;23.312;2024-02-23T01:02:31;95003.72;;;9.05;54.66
11124;BME280;5616;42.692;23.312;2024-02-23T01:04:57;95010.41;;;9.06;53.37
11124;BME280;5616;42.692;23.312;2024-02-23T01:07:24;95005.28;;;9.06;54.19
11124;BME280;5616;42.692;23.312;2024-02-23T01:09:49;95007.25;;;9.04;53.54
11124;BME280;5616;42.692;23.312;2024-02-23T01:12:15;95007.66;;;9.01;53.50
11124;BME280;5616;42.692;23.312;2024-02-23T01:14:40;95002.16;;;8.97;53.90
11124;BME280;5616;42.692;23.312;2024-02-23T01:17:06;95006.91;;;8.94;54.31
11124;BME280;5616;42.692;23.312;2024-02-23T01:19:31;95002.78;;;8.93;54.17
11124;BME280;5616;42.692;23.312;2024-02-23T01:21:57;95007.34;;;8.91;54.49
11124;BME280;5616;42.692;23.312;2024-02-23T01:24:26;94991.94;;;8.91;54.14
11124;BME280;5616;42.692;23.312;2024-02-23T01:26:54;94985.22;;;8.90;53.99
11124;BME280;5616;42.692;23.312;2024-02-23T01:29:21;94980.09;;;8.90;54.47
11124;BME280;5616;42.692;23.312;2024-02-23T01:31:48;94990.78;;;8.86;53.41
11124;BME280;5616;42.692;23.312;2024-02-23T01:34:14;94994.31;;;8.85;54.89
11124;BME280;5616;42.692;23.312;2024-02-23T01:36:39;94982.50;;;8.84;53.25
11124;BME280;5616;42.692;23.312;2024-02-23T01:39:05;94971.22;;;8.85;53.85
11124;BME280;5616;42.692;23.312;2024-02-23T01:41:30;94976.38;;;8.85;52.78
11124;BME280;5616;42.692;23.312;2024-02-23T01:43:57;94977.38;;;8.84;53.48
11124;BME280;5616;42.692;23.312;2024-02-23T01:46:23;94984.84;;;8.86;54.28
11124;BME280;5616;42.692;23.312;2024-02-23T01:48:49;94978.75;;;8.87;55.06
11124;BME280;5616;42.692;23.312;2024-02-23T01:51:14;94979.53;;;8.88;53.44
11124;BME280;5616;42.692;23.312;2024-02-23T01:53:40;94962.75;;;8.92;52.75
11124;BME280;5616;42.692;23.312;2024-02-23T01:56:06;94960.75;;;8.94;53.33
11124;BME280;5616;42.692;23.312;2024-02-23T01:58:33;94972.59;;;8.95;53.02
11124;BME280;5616;42.692;23.312;2024-02-23T02:01:00;94985.22;;;8.90;53.45
11124;BME280;5616;42.692;23.312;2024-02-23T02:03:26;94963.16;;;8.89;53.97
11124;BME280;5616;42.692;23.312;2024-02-23T02:05:52;94964.28;;;8.93;53.58
11124;BME280;5616;42.692;23.312;2024-02-23T02:08:19;94956.41;;;8.94;53.53
11124;BME280;5616;42.692;23.312;2024-02-23T02:10:45;94962.75;;;8.92;53.40
11124;BME280;5616;42.692;23.312;2024-02-23T02:13:11;94962.75;;;8.92;54.00
11124;BME280;5616;42.692;23.312;2024-02-23T02:15:37;94969.41;;;8.93;54.94
11124;BME280;5616;42.692;23.312;2024-02-23T02:18:03;94954.03;;;8.93;53.75
11124;BME280;5616;42.692;23.312;2024-02-23T02:20:32;94952.47;;;8.92;53.66
11124;BME280;5616;42.692;23.312;2024-02-23T02:22:58;94941.78;;;8.95;53.88
11124;BME280;5616;42.692;23.312;2024-02-23T02:25:23;94944.13;;;8.96;53.26
11124;BME280;5616;42.692;23.312;2024-02-23T02:27:49;94959.16;;;8.93;54.10
11124;BME280;5616;42.692;23.312;2024-02-23T02:30:15;94957.59;;;8.92;54.43
11124;BME280;5616;42.692;23.312;2024-02-23T02:32:41;94956.59;;;8.93;54.32
11124;BME280;5616;42.692;23.312;2024-02-23T02:35:07;94964.28;;;8.93;52.92
11124;BME280;5616;42.692;23.312;2024-02-23T02:37:32;94961.72;;;8.93;53.42
11124;BME280;5616;42.692;23.312;2024-02-23T02:39:58;94960.38;;;8.90;54.06
11124;BME280;5616;42.692;23.312;2024-02-23T02:42:23;94963.53;;;8.85;53.89
11124;BME280;5616;42.692;23.312;2024-02-23T02:44:48;94969.09;;;8.82;55.12
11124;BME280;5616;42.692;23.312;2024-02-23T02:47:14;94955.69;;;8.80;54.06
11124;BME280;5616;42.692;23.312;2024-02-23T02:49:40;94961.44;;;8.76;54.14
11124;BME280;5616;42.692;23.312;2024-02-23T02:52:05;94968.75;;;8.72;54.29
11124;BME280;5616;42.692;23.312;2024-02-23T02:54:31;94954.19;;;8.66;54.23
11124;BME280;5616;42.692;23.312;2024-02-23T02:56:57;94968.41;;;8.62;56.06
11124;BME280;5616;42.692;23.312;2024-02-23T02:59:23;94965.84;;;8.62;56.05
11124;BME280;5616;42.692;23.312;2024-02-23T03:01:48;94965.63;;;8.64;55.65
11124;BME280;5616;42.692;23.312;2024-02-23T03:04:14;94966.00;;;8.67;55.00
11124;BME280;5616;42.692;23.312;2024-02-23T03:06:40;94967.56;;;8.68;54.72
11124;BME280;5616;42.692;23.312;2024-02-23T03:09:06;94958.91;;;8.69;54.70
11124;BME280;5616;42.692;23.312;2024-02-23T03:11:32;94962.06;;;8.65;55.19
11124;BME280;5616;42.692;23.312;2024-02-23T03:13:57;94970.38;;;8.67;55.94
11124;BME280;5616;42.692;23.312;2024-02-23T03:16:23;94974.69;;;8.66;55.33
11124;BME280;5616;42.692;23.312;2024-02-23T03:18:51;94975.88;;;8.70;56.15
11124;BME280;5616;42.692;23.312;2024-02-23T03:21:17;94966.78;;;8.68;55.49
11124;BME280;5616;42.692;23.312;2024-02-23T03:23:42;94963.66;;;8.66;54.80
11124;BME280;5616;42.692;23.312;2024-02-23T03:26:08;94969.97;;;8.63;55.42
11124;BME280;5616;42.692;23.312;2024-02-23T03:28:33;94972.53;;;8.63;56.09
11124;BME280;5616;42.692;23.312;2024-02-23T03:31:02;94971.53;;;8.64;55.88
11124;BME280;5616;42.692;23.312;2024-02-23T03:33:27;94962.84;;;8.65;55.21
11124;BME280;5616;42.692;23.312;2024-02-23T03:35:53;94953.81;;;8.63;55.05
11124;BME280;5616;42.692;23.312;2024-02-23T03:38:19;94959.31;;;8.60;55.56
11124;BME280;5616;42.692;23.312;2024-02-23T03:40:44;94966.47;;;8.51;56.07
11124;BME280;5616;42.692;23.312;2024-02-23T03:43:10;94964.47;;;8.53;56.67
11124;BME280;5616;42.692;23.312;2024-02-23T03:45:36;94957.38;;;8.55;56.09
11124;BME280;5616;42.692;23.312;2024-02-23T03:48:03;94969.19;;;8.56;56.48
11124;BME280;5616;42.692;23.312;2024-02-23T03:50:29;94960.53;;;8.57;56.04
11124;BME280;5616;42.692;23.312;2024-02-23T03:52:55;94961.31;;;8.58;56.12
11124;BME280;5616;42.692;23.312;2024-02-23T03:55:20;94970.38;;;8.60;56.39
11124;BME280;5616;42.692;23.312;2024-02-23T03:57:47;94974.69;;;8.60;56.64
11124;BME280;5616;42.692;23.312;2024-02-23T04:00:13;94970.38;;;8.60;56.99
11124;BME280;5616;42.692;23.312;2024-02-23T04:02:39;94975.13;;;8.63;56.47
11124;BME280;5616;42.692;23.312;2024-02-23T04:05:05;94957.72;;;8.65;56.65
11124;BME280;5616;42.692;23.312;2024-02-23T04:07:30;94964.03;;;8.69;55.16
11124;BME280;5616;42.692;23.312;2024-02-23T04:09:56;94957.91;;;8.70;55.17
11124;BME280;5616;42.692;23.312;2024-02-23T04:12:22;94968.19;;;8.70;55.94
11124;BME280;5616;42.692;23.312;2024-02-23T04:14:48;94981.00;;;8.70;55.96
11124;BME280;5616;42.692;23.312;2024-02-23T04:17:13;94981.75;;;8.71;55.64
11124;BME280;5616;42.692;23.312;2024-02-23T04:19:40;94975.28;;;8.68;54.76
11124;BME280;5616;42.692;23.312;2024-02-23T04:22:07;94988.09;;;8.68;55.94
11124;BME280;5616;42.692;23.312;2024-02-23T04:24:37;94987.72;;;8.65;56.22
11124;BME280;5616;42.692;23.312;2024-02-23T04:27:07;94975.13;;;8.63;55.65
11124;BME280;5616;42.692;23.312;2024-02-23T04:29:33;94967.41;;;8.63;56.20
11124;BME280;5616;42.692;23.312;2024-02-23T04:32:00;94963.28;;;8.62;55.49
11124;BME280;5616;42.692;23.312;2024-02-23T04:34:27;94983.03;;;8.55;55.72
11124;BME280;5616;42.692;23.312;2024-02-23T04:36:52;94979.06;;;8.53;55.79
11124;BME280;5616;42.692;23.312;2024-02-23T04:39:18;94981.84;;;8.51;55.87
11124;BME280;5616;42.692;23.312;2024-02-23T04:41:43;94966.47;;;8.51;55.87
11124;BME280;5616;42.692;23.312;2024-02-23T04:44:09;94971.59;;;8.51;54.07
11124;BME280;5616;42.692;23.312;2024-02-23T04:46:34;94976.13;;;8.56;54.97
11124;BME280;5616;42.692;23.312;2024-02-23T04:49:00;94975.91;;;8.57;55.45
11124;BME280;5616;42.692;23.312;2024-02-23T04:51:26;94987.78;;;8.52;55.24
11124;BME280;5616;42.692;23.312;2024-02-23T04:53:51;94984.22;;;8.46;55.52
11124;BME280;5616;42.692;23.312;2024-02-23T04:56:17;94989.75;;;8.43;55.83
11124;BME280;5616;42.692;23.312;2024-02-23T04:58:46;94977.94;;;8.42;55.84
11124;BME280;5616;42.692;23.312;2024-02-23T05:01:12;94981.88;;;8.38;55.91
11124;BME280;5616;42.692;23.312;2024-02-23T05:03:38;94989.00;;;8.36;55.92
11124;BME280;5616;42.692;23.312;2024-02-23T05:06:03;95001.63;;;8.31;55.92
11124;BME280;5616;42.692;23.312;2024-02-23T05:08:29;94992.72;;;8.27;55.98
11124;BME280;5616;42.692;23.312;2024-02-23T05:10:58;94993.13;;;8.24;56.65
11124;BME280;5616;42.692;23.312;2024-02-23T05:13:24;94986.84;;;8.26;56.71
11124;BME280;5616;42.692;23.312;2024-02-23T05:15:49;94998.47;;;8.22;56.86
11124;BME280;5616;42.692;23.312;2024-02-23T05:18:15;95006.75;;;8.18;57.06
11124;BME280;5616;42.692;23.312;2024-02-23T05:20:40;95019.38;;;8.13;56.39
11124;BME280;5616;42.692;23.312;2024-02-23T05:23:06;95004.00;;;8.13;58.01
11124;BME280;5616;42.692;23.312;2024-02-23T05:25:31;94994.56;;;8.07;56.34
11124;BME280;5616;42.692;23.312;2024-02-23T05:27:57;95001.06;;;8.03;56.63
11124;BME280;5616;42.692;23.312;2024-02-23T05:30:22;95015.44;;;8.04;57.75
11124;BME280;5616;42.692;23.312;2024-02-23T05:32:48;95020.97;;;8.01;57.08
11124;BME280;5616;42.692;23.312;2024-02-23T05:35:14;95014.09;;;8.01;57.05
11124;BME280;5616;42.692;23.312;2024-02-23T05:37:41;95002.41;;;8.05;57.42
11124;BME280;5616;42.692;23.312;2024-02-23T05:40:06;95003.22;;;8.06;56.76
11124;BME280;5616;42.692;23.312;2024-02-23T05:42:36;95012.66;;;8.05;57.44
11124;BME280;5616;42.692;23.312;2024-02-23T05:45:02;95022.16;;;8.05;56.93
11124;BME280;5616;42.692;23.312;2024-02-23T05:47:32;95015.03;;;8.07;57.22
11124;BME280;5616;42.692;23.312;2024-02-23T05:49:58;95014.25;;;8.06;56.53
11124;BME280;5616;42.692;23.312;2024-02-23T05:52:23;95016.63;;;7.95;57.27
11124;BME280;5616;42.692;23.312;2024-02-23T05:54:49;95039.09;;;7.93;58.06
11124;BME280;5616;42.692;23.312;2024-02-23T05:57:14;95030.84;;;7.97;57.72
11124;BME280;5616;42.692;23.312;2024-02-23T05:59:40;95036.34;;;8.01;56.70
11124;BME280;5616;42.692;23.312;2024-02-23T06:02:05;95039.09;;;8.06;56.13
11124;BME280;5616;42.692;23.312;2024-02-23T06:04:31;95033.56;;;8.09;56.22
11124;BME280;5616;42.692;23.312;2024-02-23T06:06:56;95026.47;;;8.11;56.43
11124;BME280;5616;42.692;23.312;2024-02-23T06:09:22;95041.44;;;8.14;56.11
11124;BME280;5616;42.692;23.312;2024-02-23T06:11:47;95039.50;;;8.16;57.40
11124;BME280;5616;42.692;23.312;2024-02-23T06:14:13;95037.69;;;8.16;56.90
11124;BME280;5616;42.692;23.312;2024-02-23T06:16:39;95047.75;;;8.18;56.44
11124;BME280;5616;42.692;23.312;2024-02-23T06:19:06;95048.31;;;8.20;56.70
11124;BME280;5616;42.692;23.312;2024-02-23T06:21:31;95045.38;;;8.23;56.72
11124;BME280;5616;42.692;23.312;2024-02-23T06:23:57;95037.31;;;8.19;56.27
11124;BME280;5616;42.692;23.312;2024-02-23T06:26:23;95059.19;;;8.22;56.37
11124;BME280;5616;42.692;23.312;2024-02-23T06:28:48;95056.78;;;8.27;57.52
11124;BME280;5616;42.692;23.312;2024-02-23T06:31:14;95040.66;;;8.33;57.46
11124;BME280;5616;42.692;23.312;2024-02-23T06:33:40;95048.53;;;8.31;56.52
11124;BME280;5616;42.692;23.312;2024-02-23T06:36:06;95048.75;;;8.36;56.48
11124;BME280;5616;42.692;23.312;2024-02-23T06:38:33;95048.34;;;8.33;55.90
11124;BME280;5616;42.692;23.312;2024-02-23T06:40:58;95043.81;;;8.35;56.70
11124;BME280;5616;42.692;23.312;2024-02-23T06:43:24;95044.97;;;8.39;56.86
11124;BME280;5616;42.692;23.312;2024-02-23T06:45:50;95054.03;;;8.48;56.73
11124;BME280;5616;42.692;23.312;2024-02-23T06:48:16;95058.34;;;8.54;56.33
11124;BME280;5616;42.692;23.312;2024-02-23T06:50:41;95059.53;;;8.58;56.31
11124;BME280;5616;42.692;23.312;2024-02-23T06:53:07;95056.94;;;8.65;55.87
11124;BME280;5616;42.692;23.312;2024-02-23T06:55:34;95047.88;;;8.62;54.07
11124;BME280;5616;42.692;23.312;2024-02-23T06:57:59;95053.19;;;8.67;54.39
11124;BME280;5616;42.692;23.312;2024-02-23T07:00:25;95057.53;;;8.73;54.83
11124;BME280;5616;42.692;23.312;2024-02-23T07:02:50;95059.47;;;8.71;55.41
11124;BME280;5616;42.692;23.312;2024-02-23T07:05:16;95062.66;;;8.73;55.60
11124;BME280;5616;42.692;23.312;2024-02-23T07:07:42;95061.41;;;8.82;54.49
11124;BME280;5616;42.692;23.312;2024-02-23T07:10:08;95058.25;;;8.87;54.99
11124;BME280;5616;42.692;23.312;2024-02-23T07:12:34;95055.09;;;8.92;55.23
11124;BME280;5616;42.692;23.312;2024-02-23T07:14:59;95058.97;;;9.01;56.67
11124;BME280;5616;42.692;23.312;2024-02-23T07:17:25;95055.03;;;9.05;54.27
11124;BME280;5616;42.692;23.312;2024-02-23T07:19:50;95051.06;;;9.09;53.43
11124;BME280;5616;42.692;23.312;2024-02-23T07:22:17;95045.47;;;9.18;54.80
11124;BME280;5616;42.692;23.312;2024-02-23T07:24:45;95050.00;;;9.23;53.39
11124;BME280;5616;42.692;23.312;2024-02-23T07:27:11;95034.38;;;9.31;55.82
11124;BME280;5616;42.692;23.312;2024-02-23T07:29:36;95048.50;;;9.40;55.88
11124;BME280;5616;42.692;23.312;2024-02-23T07:32:03;95039.59;;;9.49;55.50
11124;BME280;5616;42.692;23.312;2024-02-23T07:34:29;95053.59;;;9.53;54.13
11124;BME280;5616;42.692;23.312;2024-02-23T07:36:54;95048.81;;;9.57;54.25
11124;BME280;5616;42.692;23.312;2024-02-23T07:39:20;95042.66;;;9.64;54.90
11124;BME280;5616;42.692;23.312;2024-02-23T07:41:47;95044.00;;;9.67;54.95
11124;BME280;5616;42.692;23.312;2024-02-23T07:44:12;95047.53;;;9.72;55.72
11124;BME280;5616;42.692;23.312;2024-02-23T07:46:38;95050.63;;;9.81;55.88
11124;BME280;5616;42.692;23.312;2024-02-23T07:49:06;95048.16;;;9.93;55.96
11124;BME280;5616;42.692;23.312;2024-02-23T07:51:32;95048.09;;;9.99;54.62
11124;BME280;5616;42.692;23.312;2024-02-23T07:53:57;95049.63;;;10.07;54.39
11124;BME280;5616;42.692;23.312;2024-02-23T07:56:23;95048.47;;;10.03;53.80
11124;BME280;5616;42.692;23.312;2024-02-23T07:58:48;95048.47;;;10.03;53.73
11124;BME280;5616;42.692;23.312;2024-02-23T08:01:14;95040.94;;;10.08;54.36
11124;BME280;5616;42.692;23.312;2024-02-23T08:03:40;95036.13;;;10.18;54.31
11124;BME280;5616;42.692;23.312;2024-02-23T08:06:06;95033.28;;;10.26;54.87
11124;BME280;5616;42.692;23.312;2024-02-23T08:08:32;95032.84;;;10.29;56.28
11124;BME280;5616;42.692;23.312;2024-02-23T08:11:03;95030.44;;;10.34;54.09
11124;BME280;5616;42.692;23.312;2024-02-23T08:13:29;95024.78;;;10.44;54.43
11124;BME280;5616;42.692;23.312;2024-02-23T08:15:54;95032.59;;;10.55;54.48
11124;BME280;5616;42.692;23.312;2024-02-23T08:18:20;95040.22;;;10.62;55.27
11124;BME280;5616;42.692;23.312;2024-02-23T08:20:47;95041.28;;;10.72;54.38
11124;BME280;5616;42.692;23.312;2024-02-23T08:23:13;95033.84;;;10.82;53.65
11124;BME280;5616;42.692;23.312;2024-02-23T08:25:39;95024.25;;;10.90;53.27
11124;BME280;5616;42.692;23.312;2024-02-23T08:28:04;95034.06;;;10.99;54.30
11124;BME280;5616;42.692;23.312;2024-02-23T08:30:30;95030.41;;;11.07;52.92
11124;BME280;5616;42.692;23.312;2024-02-23T08:32:55;95027.50;;;11.15;52.88
11124;BME280;5616;42.692;23.312;2024-02-23T08:35:21;95020.94;;;11.19;51.76
11124;BME280;5616;42.692;23.312;2024-02-23T08:37:46;95028.94;;;11.29;53.17
11124;BME280;5616;42.692;23.312;2024-02-23T08:40:12;95025.22;;;11.25;52.27
11124;BME280;5616;42.692;23.312;2024-02-23T08:42:38;95013.81;;;11.32;52.57
11124;BME280;5616;42.692;23.312;2024-02-23T08:45:03;95021.75;;;11.31;52.67
11124;BME280;5616;42.692;23.312;2024-02-23T08:47:29;95012.59;;;11.35;52.30
11124;BME280;5616;42.692;23.312;2024-02-23T08:49:58;95019.22;;;11.43;53.01
11124;BME280;5616;42.692;23.312;2024-02-23T08:52:24;95025.41;;;11.53;50.78
11124;BME280;5616;42.692;23.312;2024-02-23T08:54:51;95029.38;;;11.67;50.22
11124;BME280;5616;42.692;23.312;2024-02-23T08:57:16;95025.06;;;11.79;49.90
11124;BME280;5616;42.692;23.312;2024-02-23T08:59:45;95032.03;;;11.91;48.95
11124;BME280;5616;42.692;23.312;2024-02-23T09:02:11;95026.63;;;12.04;50.00
11124;BME280;5616;42.692;23.312;2024-02-23T09:04:36;95023.84;;;12.17;50.04
11124;BME280;5616;42.692;23.312;2024-02-23T09:07:02;95023.03;;;12.28;49.63
11124;BME280;5616;42.692;23.312;2024-02-23T09:09:27;95024.84;;;12.39;48.24
11124;BME280;5616;42.692;23.312;2024-02-23T09:11:53;95017.34;;;12.49;47.59
11124;BME280;5616;42.692;23.312;2024-02-23T09:14:18;95020.66;;;12.61;48.65
11124;BME280;5616;42.692;23.312;2024-02-23T09:16:44;95012.13;;;12.72;46.61
11124;BME280;5616;42.692;23.312;2024-02-23T09:19:11;95010.63;;;12.88;46.22
11124;BME280;5616;42.692;23.312;2024-02-23T09:21:37;95026.09;;;13.00;46.56
11124;BME280;5616;42.692;23.312;2024-02-23T09:24:03;95012.38;;;13.11;47.58
11124;BME280;5616;42.692;23.312;2024-02-23T09:26:29;95019.19;;;13.17;46.23
11124;BME280;5616;42.692;23.312;2024-02-23T09:28:54;95019.75;;;13.19;44.25
11124;BME280;5616;42.692;23.312;2024-02-23T09:31:20;95011.16;;;13.30;44.32
11124;BME280;5616;42.692;23.312;2024-02-23T09:33:45;95019.09;;;13.40;44.47
11124;BME280;5616;42.692;23.312;2024-02-23T09:36:12;95017.59;;;13.44;44.35
11124;BME280;5616;42.692;23.312;2024-02-23T09:38:37;95005.09;;;13.53;45.55
11124;BME280;5616;42.692;23.312;2024-02-23T09:41:03;95011.22;;;13.63;42.43
11124;BME280;5616;42.692;23.312;2024-02-23T09:43:29;95003.63;;;13.73;42.23
11124;BME280;5616;42.692;23.312;2024-02-23T09:45:58;95013.56;;;13.82;42.69
11124;BME280;5616;42.692;23.312;2024-02-23T09:48:24;95027.69;;;13.91;41.02
11124;BME280;5616;42.692;23.312;2024-02-23T09:50:52;95003.38;;;13.92;41.91
11124;BME280;5616;42.692;23.312;2024-02-23T09:53:19;95002.78;;;14.01;42.81
11124;BME280;5616;42.692;23.312;2024-02-23T09:55:47;94999.31;;;14.12;42.75
11124;BME280;5616;42.692;23.312;2024-02-23T09:58:14;94997.03;;;14.16;41.81
11124;BME280;5616;42.692;23.312;2024-02-23T10:00:43;94983.75;;;14.29;42.66
11124;BME280;5616;42.692;23.312;2024-02-23T10:03:09;94991.44;;;14.41;41.65
11124;BME280;5616;42.692;23.312;2024-02-23T10:05:34;94995.44;;;14.48;41.04
11124;BME280;5616;42.692;23.312;2024-02-23T10:08:00;94995.03;;;14.56;41.91
11124;BME280;5616;42.692;23.312;2024-02-23T10:10:35;94996.13;;;14.60;40.54
11124;BME280;5616;42.692;23.312;2024-02-23T10:13:01;94985.41;;;14.73;40.97
11124;BME280;5616;42.692;23.312;2024-02-23T10:15:29;94979.84;;;14.87;38.45
11124;BME280;5616;42.692;23.312;2024-02-23T10:17:56;94989.28;;;14.98;39.37
11124;BME280;5616;42.692;23.312;2024-02-23T10:20:21;94975.53;;;14.97;40.21
11124;BME280;5616;42.692;23.312;2024-02-23T10:22:47;94979.66;;;14.93;37.58
11124;BME280;5616;42.692;23.312;2024-02-23T10:25:12;94974.28;;;15.00;39.15
11124;BME280;5616;42.692;23.312;2024-02-23T10:27:40;94972.81;;;15.09;38.79
11124;BME280;5616;42.692;23.312;2024-02-23T10:30:07;94969.31;;;15.20;38.50
11124;BME280;5616;42.692;23.312;2024-02-23T10:32:36;94978.59;;;15.16;38.09
11124;BME280;5616;42.692;23.312;2024-02-23T10:35:04;94958.41;;;15.18;38.23
11124;BME280;5616;42.692;23.312;2024-02-23T10:37:34;94959.03;;;15.30;37.45
11124;BME280;5616;42.692;23.312;2024-02-23T10:40:00;94980.84;;;15.34;35.70
11124;BME280;5616;42.692;23.312;2024-02-23T10:42:30;94955.84;;;15.23;37.74
11124;BME280;5616;42.692;23.312;2024-02-23T10:44:58;94958.56;;;15.33;36.55
11124;BME280;5616;42.692;23.312;2024-02-23T10:47:27;94949.75;;;15.34;36.29
11124;BME280;5616;42.692;23.312;2024-02-23T10:49:53;94952.38;;;15.39;36.48
11124;BME280;5616;42.692;23.312;2024-02-23T10:52:21;94935.34;;;15.48;35.75
11124;BME280;5616;42.692;23.312;2024-02-23T10:54:49;94946.81;;;15.52;36.55
11124;BME280;5616;42.692;23.312;2024-02-23T10:57:17;94930.16;;;15.48;36.05
11124;BME280;5616;42.692;23.312;2024-02-23T10:59:47;94931.84;;;15.59;36.35
11124;BME280;5616;42.692;23.312;2024-02-23T11:02:17;94927.22;;;15.66;36.53
11124;BME280;5616;42.692;23.312;2024-02-23T11:04:47;94915.81;;;15.62;35.80
11124;BME280;5616;42.692;23.312;2024-02-23T11:07:17;94929.00;;;15.61;36.44
11124;BME280;5616;42.692;23.312;2024-02-23T11:09:49;94911.19;;;15.69;35.77
11124;BME280;5616;42.692;23.312;2024-02-23T11:12:22;94925.22;;;15.74;36.30
11124;BME280;5616;42.692;23.312;2024-02-23T11:14:49;94915.66;;;15.79;35.80
11124;BME280;5616;42.692;23.312;2024-02-23T11:17:19;94905.03;;;15.81;35.99
11124;BME280;5616;42.692;23.312;2024-02-23T11:19:50;94899.84;;;15.81;35.65
11124;BME280;5616;42.692;23.312;2024-02-23T11:22:41;94905.06;;;15.86;35.18
11124;BME280;5616;42.692;23.312;2024-02-23T11:25:07;94898.28;;;15.85;35.77
11124;BME280;5616;42.692;23.312;2024-02-23T11:27:37;94890.28;;;15.86;36.11
11124;BME280;5616;42.692;23.312;2024-02-23T11:30:09;94889.44;;;15.76;36.22
11124;BME280;5616;42.692;23.312;2024-02-23T11:32:47;94890.16;;;15.66;36.93
11124;BME280;5616;42.692;23.312;2024-02-23T11:35:15;94890.84;;;15.56;35.94
11124;BME280;5616;42.692;23.312;2024-02-23T11:37:59;94890.56;;;15.53;36.55
11124;BME280;5616;42.692;23.312;2024-02-23T11:40:26;94886.16;;;15.53;36.39
11124;BME280;5616;42.692;23.312;2024-02-23T11:42:52;94891.34;;;15.53;35.15
11124;BME280;5616;42.692;23.312;2024-02-23T11:45:17;94886.16;;;15.53;35.89
11124;BME280;5616;42.692;23.312;2024-02-23T11:47:43;94885.09;;;15.49;37.17
11124;BME280;5616;42.692;23.312;2024-02-23T11:50:10;94882.44;;;15.44;36.31
11124;BME280;5616;42.692;23.312;2024-02-23T11:52:38;94885.78;;;15.40;37.02
11124;BME280;5616;42.692;23.312;2024-02-23T11:55:04;94871.50;;;15.37;35.90
11124;BME280;5616;42.692;23.312;2024-02-23T11:57:38;94875.63;;;15.33;36.00
11124;BME280;5616;42.692;23.312;2024-02-23T12:00:04;94867.59;;;15.35;35.20
11124;BME280;5616;42.692;23.312;2024-02-23T12:02:34;94867.88;;;15.38;35.90
11124;BME280;5616;42.692;23.312;2024-02-23T12:05:00;94877.50;;;15.43;35.32
11124;BME280;5616;42.692;23.312;2024-02-23T12:07:26;94879.81;;;15.39;35.26
11124;BME280;5616;42.692;23.312;2024-02-23T12:09:54;94861.16;;;15.37;36.06
11124;BME280;5616;42.692;23.312;2024-02-23T12:12:20;94855.69;;;15.39;36.52
11124;BME280;5616;42.692;23.312;2024-02-23T12:14:47;94854.66;;;15.40;35.83
11124;BME280;5616;42.692;23.312;2024-02-23T12:17:13;94860.16;;;15.43;36.09
11124;BME280;5616;42.692;23.312;2024-02-23T12:19:40;94856.53;;;15.44;36.25
11124;BME280;5616;42.692;23.312;2024-02-23T12:22:05;94856.47;;;15.39;35.59
11124;BME280;5616;42.692;23.312;2024-02-23T12:24:31;94859.41;;;15.48;36.34
11124;BME280;5616;42.692;23.312;2024-02-23T12:26:57;94853.00;;;15.55;34.63
11124;BME280;5616;42.692;23.312;2024-02-23T12:29:23;94837.94;;;15.52;35.38
11124;BME280;5616;42.692;23.312;2024-02-23T12:31:48;94846.78;;;15.56;35.97
11124;BME280;5616;42.692;23.312;2024-02-23T12:34:14;94833.81;;;15.56;35.94
11124;BME280;5616;42.692;23.312;2024-02-23T12:36:39;94838.75;;;15.63;35.11
11124;BME280;5616;42.692;23.312;2024-02-23T12:39:05;94836.44;;;15.61;36.06
11124;BME280;5616;42.692;23.312;2024-02-23T12:41:30;94841.34;;;15.58;34.97
11124;BME280;5616;42.692;23.312;2024-02-23T12:43:56;94828.09;;;15.54;34.89
11124;BME280;5616;42.692;23.312;2024-02-23T12:46:21;94831.75;;;15.58;35.22
11124;BME280;5616;42.692;23.312;2024-02-23T12:48:49;94811.03;;;15.58;35.41
11124;BME280;5616;42.692;23.312;2024-02-23T12:51:15;94813.84;;;15.57;36.65
11124;BME280;5616;42.692;23.312;2024-02-23T12:53:41;94819.81;;;15.57;35.12
11124;BME280;5616;42.692;23.312;2024-02-23T12:56:10;94807.88;;;15.56;35.55
11124;BME280;5616;42.692;23.312;2024-02-23T12:58:37;94813.84;;;15.57;36.08
11124;BME280;5616;42.692;23.312;2024-02-23T13:01:03;94807.34;;;15.54;35.72
11124;BME280;5616;42.692;23.312;2024-02-23T13:03:28;94811.03;;;15.58;34.60